createdAt,value
2022-08-31T00:00:17.428Z,8.68
2022-08-31T00:03:03.881Z,9.25
2022-08-31T00:05:31.499Z,9.38
2022-08-31T00:07:59.155Z,8.63
2022-08-31T00:10:32.677Z,9.00
2022-08-31T00:13:06.846Z,8.13
2022-08-31T00:15:35.804Z,9.55
2022-08-31T00:18:04.180Z,8.77
2022-08-31T00:20:33.822Z,8.95
2022-08-31T00:23:09.964Z,9.52
2022-08-31T00:25:38.307Z,8.68
2022-08-31T00:28:05.941Z,9.52
2022-08-31T00:30:35.054Z,9.43
2022-08-31T00:33:02.779Z,9.02
2022-08-31T00:35:35.968Z,7.97
2022-08-31T00:38:04.738Z,8.55
2022-08-31T00:40:33.162Z,9.00
2022-08-31T00:43:12.624Z,9.07
2022-08-31T00:45:40.352Z,10.60
2022-08-31T00:48:08.075Z,9.80
2022-08-31T00:50:35.713Z,10.00
2022-08-31T00:53:04.191Z,9.80
2022-08-31T00:55:36.884Z,9.95
2022-08-31T00:58:07.330Z,9.88
2022-08-31T01:00:35.072Z,10.27
2022-08-31T01:03:04.279Z,9.80
2022-08-31T01:05:32.514Z,9.52
2022-08-31T01:08:00.887Z,10.02
2022-08-31T01:10:31.230Z,9.50
2022-08-31T01:12:59.674Z,10.43
2022-08-31T01:15:28.968Z,10.48
2022-08-31T01:17:57.998Z,9.80
2022-08-31T01:20:27.888Z,10.35
2022-08-31T01:22:58.256Z,10.43
2022-08-31T01:25:32.559Z,10.40
2022-08-31T01:28:04.089Z,10.73
2022-08-31T01:30:31.843Z,10.13
2022-08-31T01:32:59.462Z,9.63
2022-08-31T01:35:27.729Z,10.05
2022-08-31T01:37:56.979Z,9.30
2022-08-31T01:40:33.978Z,9.70
2022-08-31T01:43:01.705Z,9.15
2022-08-31T01:45:29.371Z,8.18
2022-08-31T01:47:59.265Z,8.88
2022-08-31T01:50:26.965Z,9.10
2022-08-31T01:52:54.691Z,8.88
2022-08-31T01:55:22.363Z,8.23
2022-08-31T01:57:49.975Z,8.50
2022-08-31T02:00:20.378Z,8.07
2022-08-31T02:02:48.503Z,8.68
2022-08-31T02:05:16.358Z,8.75
2022-08-31T02:07:45.787Z,8.85
2022-08-31T02:10:13.859Z,9.60
2022-08-31T02:12:41.643Z,8.68
2022-08-31T02:15:10.137Z,8.90
2022-08-31T02:17:37.762Z,8.80
2022-08-31T02:20:10.199Z,9.27
2022-08-31T02:25:06.056Z,9.25
2022-08-31T02:27:36.904Z,9.48
2022-08-31T02:30:06.262Z,8.93
2022-08-31T02:32:33.882Z,8.30
2022-08-31T02:35:01.462Z,8.73
2022-08-31T02:37:29.054Z,7.90
2022-08-31T02:39:57.119Z,8.88
2022-08-31T02:42:24.782Z,8.43
2022-08-31T02:44:52.468Z,8.50
2022-08-31T02:47:20.188Z,8.27
2022-08-31T02:50:04.326Z,8.93
2022-08-31T02:52:31.957Z,9.15
2022-08-31T02:54:59.579Z,8.65
2022-08-31T02:57:27.310Z,7.93
2022-08-31T02:59:55.079Z,8.15
2022-08-31T03:02:23.599Z,8.55
2022-08-31T03:05:01.678Z,8.63
2022-08-31T03:07:29.328Z,8.63
2022-08-31T03:09:57.301Z,8.38
2022-08-31T03:12:25.006Z,8.70
2022-08-31T03:14:52.677Z,8.18
2022-08-31T03:17:20.343Z,8.48
2022-08-31T03:19:48.973Z,8.45
2022-08-31T03:22:16.775Z,8.05
2022-08-31T03:24:44.920Z,8.20
2022-08-31T03:27:12.518Z,8.82
2022-08-31T03:29:41.756Z,8.15
2022-08-31T03:34:56.297Z,8.70
2022-08-31T03:37:24.237Z,8.57
2022-08-31T03:39:54.374Z,9.23
2022-08-31T03:42:22.081Z,8.55
2022-08-31T03:44:50.111Z,8.70
2022-08-31T03:47:22.912Z,8.55
2022-08-31T03:49:51.169Z,8.45
2022-08-31T03:52:40.072Z,9.23
2022-08-31T03:55:14.873Z,8.43
2022-08-31T03:57:42.920Z,8.70
2022-08-31T04:00:10.899Z,9.38
2022-08-31T04:02:41.451Z,8.82
2022-08-31T04:05:31.440Z,8.77
2022-08-31T04:08:18.167Z,9.07
2022-08-31T04:10:46.968Z,8.48
2022-08-31T04:13:32.900Z,8.38
2022-08-31T04:16:20.363Z,9.18
2022-08-31T04:18:50.891Z,8.52
2022-08-31T04:21:23.819Z,9.63
2022-08-31T04:23:52.209Z,9.98
2022-08-31T04:26:23.737Z,9.48
2022-08-31T04:28:51.847Z,9.98
2022-08-31T04:31:20.457Z,9.00
2022-08-31T04:33:48.630Z,9.25
2022-08-31T04:36:17.698Z,9.02
2022-08-31T04:38:46.401Z,9.60
2022-08-31T04:41:15.863Z,8.77
2022-08-31T04:43:45.084Z,8.85
2022-08-31T04:46:12.775Z,9.45
2022-08-31T04:48:40.825Z,9.10
2022-08-31T04:51:09.513Z,10.25
2022-08-31T04:53:37.144Z,8.88
2022-08-31T04:56:14.122Z,9.10
2022-08-31T04:58:44.090Z,9.35
2022-08-31T05:01:12.298Z,9.52
2022-08-31T05:04:00.573Z,9.38
2022-08-31T05:06:30.887Z,9.35
2022-08-31T05:08:59.667Z,8.70
2022-08-31T05:11:27.796Z,9.93
2022-08-31T05:13:56.947Z,9.57
2022-08-31T05:16:24.960Z,9.77
2022-08-31T05:18:53.528Z,10.15
2022-08-31T05:21:25.372Z,10.35
2022-08-31T05:23:53.408Z,9.38
2022-08-31T05:26:26.447Z,9.20
2022-08-31T05:28:55.589Z,9.73
2022-08-31T05:31:23.439Z,9.90
2022-08-31T05:33:52.845Z,10.00
2022-08-31T05:36:29.551Z,10.25
2022-08-31T05:39:01.085Z,9.57
2022-08-31T05:41:30.188Z,9.25
2022-08-31T05:43:58.483Z,9.40
2022-08-31T05:46:27.063Z,9.90
2022-08-31T05:48:55.913Z,10.38
2022-08-31T05:51:24.585Z,10.70
2022-08-31T05:53:53.196Z,9.93
2022-08-31T05:56:24.986Z,10.13
2022-08-31T05:58:56.988Z,9.25
2022-08-31T06:01:31.233Z,9.15
2022-08-31T06:06:46.651Z,8.85
2022-08-31T06:09:16.181Z,8.98
2022-08-31T06:11:45.415Z,9.65
2022-08-31T06:14:16.187Z,8.83
2022-08-31T06:16:45.642Z,9.57
2022-08-31T06:19:16.843Z,9.60
2022-08-31T06:21:50.847Z,9.90
2022-08-31T06:24:26.621Z,9.32
2022-08-31T06:26:58.887Z,9.23
2022-08-31T06:29:33.006Z,9.07
2022-08-31T06:32:08.188Z,9.90
2022-08-31T06:34:39.920Z,8.95
2022-08-31T06:37:08.462Z,8.88
2022-08-31T06:40:04.959Z,9.10
2022-08-31T06:42:57.107Z,9.75
2022-08-31T06:45:29.942Z,9.38
2022-08-31T06:48:17.776Z,9.65
2022-08-31T06:50:45.449Z,9.63
2022-08-31T06:53:14.031Z,9.07
2022-08-31T06:56:20.394Z,9.35
2022-08-31T06:59:08.087Z,9.75
2022-08-31T07:01:54.216Z,9.05
2022-08-31T07:04:36.069Z,8.93
2022-08-31T07:07:04.295Z,8.60
2022-08-31T07:09:32.236Z,8.55
2022-08-31T07:11:59.979Z,8.90
2022-08-31T07:14:28.268Z,9.30
2022-08-31T07:16:58.751Z,9.07
2022-08-31T07:19:27.532Z,9.15
2022-08-31T07:21:57.670Z,8.70
2022-08-31T07:24:30.073Z,8.93
2022-08-31T07:27:04.279Z,8.90
2022-08-31T07:29:43.247Z,8.45
2022-08-31T07:32:14.175Z,8.80
2022-08-31T07:34:43.947Z,8.35
2022-08-31T07:37:53.660Z,8.55
2022-08-31T07:40:45.025Z,9.02
2022-08-31T07:43:15.400Z,8.50
2022-08-31T07:45:45.053Z,9.20
2022-08-31T07:48:19.669Z,8.82
2022-08-31T07:51:05.952Z,8.35
2022-08-31T07:53:54.516Z,9.50
2022-08-31T07:56:45.912Z,8.93
2022-08-31T07:59:20.986Z,9.13
2022-08-31T08:01:50.024Z,9.00
2022-08-31T08:04:25.736Z,8.73
2022-08-31T08:09:57.614Z,8.40
2022-08-31T08:12:52.848Z,8.98
2022-08-31T08:15:37.232Z,8.90
2022-08-31T08:18:26.320Z,8.55
2022-08-31T08:20:58.261Z,8.65
2022-08-31T08:23:27.752Z,8.45
2022-08-31T08:26:09.736Z,9.73
2022-08-31T08:29:12.441Z,9.75
2022-08-31T08:31:52.076Z,9.27
2022-08-31T08:34:20.962Z,8.65
2022-08-31T08:36:49.463Z,8.65
2022-08-31T08:39:17.804Z,8.82
2022-08-31T08:41:58.169Z,9.05
2022-08-31T08:44:28.817Z,8.95
2022-08-31T08:46:58.235Z,9.38
2022-08-31T08:49:54.203Z,8.40
2022-08-31T08:52:24.982Z,8.65
2022-08-31T08:54:54.126Z,8.43
2022-08-31T08:57:27.221Z,8.15
2022-08-31T09:00:02.706Z,8.05
2022-08-31T09:02:45.979Z,8.68
2022-08-31T09:05:21.765Z,8.48
2022-08-31T09:08:11.408Z,8.73
2022-08-31T09:10:43.844Z,8.40
2022-08-31T09:13:30.953Z,7.93
2022-08-31T09:16:08.659Z,7.80
2022-08-31T09:18:43.197Z,7.93
2022-08-31T09:21:17.224Z,8.25
2022-08-31T09:23:48.472Z,7.90
2022-08-31T09:26:17.569Z,7.75
2022-08-31T09:29:26.576Z,7.65
2022-08-31T09:32:07.071Z,8.63
2022-08-31T09:34:37.334Z,7.60
2022-08-31T09:37:25.586Z,8.15
2022-08-31T09:39:54.366Z,6.45
2022-08-31T09:42:33.877Z,6.20
2022-08-31T09:45:03.788Z,5.93
2022-08-31T09:47:48.867Z,7.07
2022-08-31T09:50:26.673Z,6.85
2022-08-31T09:53:32.726Z,6.95
2022-08-31T09:56:20.248Z,7.07
2022-08-31T09:58:57.135Z,7.07
2022-08-31T10:01:30.895Z,6.40
2022-08-31T10:04:09.071Z,7.22
2022-08-31T10:06:48.240Z,7.10
2022-08-31T10:09:21.246Z,7.30
2022-08-31T10:11:49.783Z,6.78
2022-08-31T10:14:38.335Z,6.95
2022-08-31T10:17:10.130Z,6.72
2022-08-31T10:22:07.351Z,6.47
2022-08-31T10:24:44.611Z,6.78
2022-08-31T10:27:29.200Z,6.68
2022-08-31T10:30:00.807Z,6.25
2022-08-31T10:32:38.026Z,6.00
2022-08-31T10:35:25.204Z,6.38
2022-08-31T10:37:59.223Z,6.50
2022-08-31T10:40:32.077Z,6.13
2022-08-31T10:43:18.702Z,5.88
2022-08-31T10:45:49.283Z,6.00
2022-08-31T10:48:18.095Z,6.53
2022-08-31T10:50:48.258Z,6.47
2022-08-31T10:53:39.983Z,6.00
2022-08-31T10:58:47.680Z,6.22
2022-08-31T11:01:38.935Z,6.18
2022-08-31T11:04:12.941Z,5.53
2022-08-31T11:06:44.387Z,6.55
2022-08-31T11:09:20.300Z,7.38
2022-08-31T11:11:57.457Z,7.20
2022-08-31T11:14:45.178Z,7.45
2022-08-31T11:17:51.249Z,8.07
2022-08-31T11:20:39.812Z,7.55
2022-08-31T11:23:26.845Z,7.75
2022-08-31T11:25:58.271Z,7.35
2022-08-31T11:28:37.923Z,7.53
2022-08-31T11:31:23.375Z,7.72
2022-08-31T11:34:14.626Z,8.10
2022-08-31T11:36:52.275Z,8.52
2022-08-31T11:39:35.834Z,8.38
2022-08-31T11:42:06.120Z,7.43
2022-08-31T11:44:36.179Z,8.30
2022-08-31T11:47:08.064Z,8.15
2022-08-31T11:49:36.130Z,8.15
2022-08-31T11:52:10.207Z,8.15
2022-08-31T11:54:43.430Z,8.23
2022-08-31T11:57:15.847Z,8.27
2022-08-31T11:59:46.022Z,8.48
2022-08-31T12:02:20.099Z,8.13
2022-08-31T12:04:57.405Z,8.30
2022-08-31T12:07:29.560Z,8.50
2022-08-31T12:10:04.113Z,8.77
2022-08-31T12:12:51.229Z,9.20
2022-08-31T12:15:37.288Z,8.48
2022-08-31T12:18:27.084Z,8.70
2022-08-31T12:21:28.852Z,9.18
2022-08-31T12:24:05.646Z,8.40
2022-08-31T12:26:51.382Z,8.02
2022-08-31T12:29:24.603Z,7.40
2022-08-31T12:32:14.328Z,6.72
2022-08-31T12:34:47.896Z,6.63
2022-08-31T12:37:35.046Z,7.65
2022-08-31T12:40:11.751Z,7.32
2022-08-31T12:42:46.608Z,7.05
2022-08-31T12:45:17.803Z,7.22
2022-08-31T12:48:04.339Z,6.75
2022-08-31T12:50:53.772Z,7.43
2022-08-31T12:53:30.479Z,6.72
2022-08-31T12:56:10.703Z,7.70
2022-08-31T12:58:56.971Z,7.70
2022-08-31T13:01:26.238Z,8.63
2022-08-31T13:03:56.092Z,8.02
2022-08-31T13:06:34.149Z,7.55
2022-08-31T13:09:02.407Z,7.93
2022-08-31T13:11:35.047Z,9.05
2022-08-31T13:14:27.505Z,7.85
2022-08-31T13:16:57.975Z,9.00
2022-08-31T13:19:26.881Z,9.50
2022-08-31T13:22:08.813Z,8.90
2022-08-31T13:24:41.062Z,10.27
2022-08-31T13:27:10.479Z,10.10
2022-08-31T13:29:45.114Z,9.90
2022-08-31T13:32:30.681Z,9.52
2022-08-31T13:35:08.181Z,10.43
2022-08-31T13:37:39.669Z,10.40
2022-08-31T13:40:09.482Z,9.68
2022-08-31T13:42:45.491Z,10.27
2022-08-31T13:45:25.014Z,10.07
2022-08-31T13:47:57.227Z,10.18
2022-08-31T13:50:27.002Z,9.82
2022-08-31T13:53:23.022Z,10.20
2022-08-31T13:55:48.774Z,9.50
2022-08-31T13:58:26.041Z,10.68
2022-08-31T14:00:58.122Z,9.05
2022-08-31T14:03:32.085Z,10.40
2022-08-31T14:06:23.726Z,10.18
2022-08-31T14:08:53.182Z,10.52
2022-08-31T14:11:21.511Z,10.65
2022-08-31T14:13:50.700Z,10.00
2022-08-31T14:16:30.191Z,9.60
2022-08-31T14:18:58.393Z,9.70
2022-08-31T14:21:28.893Z,9.73
2022-08-31T14:24:00.929Z,9.00
2022-08-31T14:26:30.200Z,8.90
2022-08-31T14:29:00.282Z,8.82
2022-08-31T14:31:30.640Z,9.95
2022-08-31T14:34:19.028Z,10.15
2022-08-31T14:36:52.526Z,9.65
2022-08-31T14:39:29.976Z,9.95
2022-08-31T14:42:18.540Z,9.65
2022-08-31T14:44:53.739Z,10.15
2022-08-31T14:47:22.856Z,10.13
2022-08-31T14:49:50.888Z,10.07
2022-08-31T14:52:18.667Z,10.88
2022-08-31T14:54:47.667Z,10.73
2022-08-31T14:57:18.374Z,10.60
2022-08-31T14:59:46.991Z,9.77
2022-08-31T15:02:21.113Z,10.50
2022-08-31T15:04:49.216Z,10.40
2022-08-31T15:07:17.223Z,11.13
2022-08-31T15:09:46.647Z,10.43
2022-08-31T15:12:15.319Z,10.25
2022-08-31T15:14:45.110Z,11.00
2022-08-31T15:17:19.242Z,10.93
2022-08-31T15:19:50.153Z,9.95
2022-08-31T15:22:18.255Z,10.80
2022-08-31T15:24:48.017Z,11.02
2022-08-31T15:27:15.950Z,10.30
2022-08-31T15:29:45.550Z,9.95
2022-08-31T15:32:17.369Z,9.90
2022-08-31T15:34:58.353Z,10.48
2022-08-31T15:37:28.072Z,10.20
2022-08-31T15:40:00.659Z,10.60
2022-08-31T15:42:29.469Z,10.57
2022-08-31T15:44:57.597Z,11.10
2022-08-31T15:47:45.020Z,10.57
2022-08-31T15:50:12.789Z,10.57
2022-08-31T15:52:43.807Z,11.32
2022-08-31T15:55:20.039Z,10.05
2022-08-31T15:57:48.112Z,10.75
2022-08-31T16:00:15.840Z,9.88
2022-08-31T16:02:44.948Z,10.73
2022-08-31T16:05:13.552Z,10.98
2022-08-31T16:07:41.781Z,10.73
2022-08-31T16:10:19.341Z,11.30
2022-08-31T16:12:50.316Z,10.60
2022-08-31T16:15:18.195Z,11.38
2022-08-31T16:17:46.246Z,11.02
2022-08-31T16:20:14.579Z,10.88
2022-08-31T16:22:43.160Z,11.10
2022-08-31T16:25:12.876Z,11.25
2022-08-31T16:27:40.790Z,11.02
2022-08-31T16:30:12.506Z,11.68
2022-08-31T16:32:40.585Z,11.25
2022-08-31T16:35:08.608Z,12.13
2022-08-31T16:37:37.761Z,11.57
2022-08-31T16:40:05.868Z,12.93
2022-08-31T16:42:33.580Z,11.50
2022-08-31T16:45:02.362Z,12.13
2022-08-31T16:47:30.456Z,11.43
2022-08-31T16:50:00.809Z,10.57
2022-08-31T16:52:28.408Z,10.88
2022-08-31T16:54:59.730Z,10.82
2022-08-31T16:57:29.256Z,11.00
2022-08-31T16:59:57.873Z,11.68
2022-08-31T17:02:26.325Z,12.05
2022-08-31T17:04:54.578Z,11.38
2022-08-31T17:07:23.670Z,12.02
2022-08-31T17:09:52.329Z,9.63
2022-08-31T17:12:21.544Z,9.52
2022-08-31T17:14:52.155Z,8.98
2022-08-31T17:17:21.631Z,10.02
2022-08-31T17:19:49.299Z,8.65
2022-08-31T17:22:23.413Z,8.35
2022-08-31T17:24:56.269Z,7.25
2022-08-31T17:27:24.789Z,6.55
2022-08-31T17:29:54.681Z,6.70
2022-08-31T17:32:24.551Z,7.00
2022-08-31T17:34:54.209Z,6.88
2022-08-31T17:37:27.017Z,7.28
2022-08-31T17:39:55.777Z,7.82
2022-08-31T17:42:26.630Z,7.05
2022-08-31T17:44:55.171Z,7.68
2022-08-31T17:47:23.898Z,7.40
2022-08-31T17:49:52.391Z,7.60
2022-08-31T17:52:21.408Z,8.07
2022-08-31T17:54:50.743Z,7.70
2022-08-31T17:57:19.592Z,7.68
2022-08-31T17:59:48.919Z,7.57
2022-08-31T18:02:20.979Z,8.07
2022-08-31T18:04:49.034Z,7.80
2022-08-31T18:07:17.424Z,8.02
2022-08-31T18:09:46.669Z,7.85
2022-08-31T18:12:15.725Z,7.95
2022-08-31T18:14:43.342Z,8.85
2022-08-31T18:17:12.491Z,9.05
2022-08-31T18:19:40.468Z,7.90
2022-08-31T18:22:08.188Z,8.68
2022-08-31T18:24:37.684Z,8.82
2022-08-31T18:27:07.145Z,9.70
2022-08-31T18:29:38.464Z,9.13
2022-08-31T18:32:07.758Z,8.77
2022-08-31T18:34:40.121Z,9.45
2022-08-31T18:37:09.206Z,9.63
2022-08-31T18:39:59.727Z,8.90
2022-08-31T18:42:56.863Z,9.85
2022-08-31T18:45:25.082Z,10.38
2022-08-31T18:50:46.559Z,9.90
2022-08-31T18:53:28.609Z,9.63
2022-08-31T18:56:08.678Z,10.02
2022-08-31T18:58:37.434Z,10.85
2022-08-31T19:01:10.246Z,11.27
2022-08-31T19:03:39.297Z,11.43
2022-08-31T19:06:07.222Z,11.13
2022-08-31T19:08:35.557Z,11.00
2022-08-31T19:11:06.974Z,10.68
2022-08-31T19:13:34.606Z,11.05
2022-08-31T19:16:10.714Z,11.77
2022-08-31T19:18:43.949Z,11.48
2022-08-31T19:21:19.307Z,11.85
2022-08-31T19:23:47.595Z,11.07
2022-08-31T19:26:21.244Z,11.73
2022-08-31T19:28:51.091Z,12.43
2022-08-31T19:31:20.965Z,13.00
2022-08-31T19:33:49.045Z,12.63
2022-08-31T19:36:16.908Z,12.25
2022-08-31T19:38:46.812Z,11.73
2022-08-31T19:41:15.553Z,13.10
2022-08-31T19:43:50.722Z,12.32
2022-08-31T19:46:24.046Z,12.18
2022-08-31T19:48:52.558Z,13.02
2022-08-31T19:51:21.819Z,12.77
2022-08-31T19:53:50.255Z,13.40
2022-08-31T19:56:23.247Z,14.02
2022-08-31T19:58:52.746Z,13.85
2022-08-31T20:01:24.031Z,15.13
2022-08-31T20:04:01.978Z,15.63
2022-08-31T20:06:29.640Z,14.38
2022-08-31T20:08:57.268Z,15.18
2022-08-31T20:11:26.506Z,14.77
2022-08-31T20:13:55.086Z,15.75
2022-08-31T20:16:28.593Z,15.23
2022-08-31T20:19:04.495Z,16.45
2022-08-31T20:21:34.706Z,15.93
2022-08-31T20:24:04.631Z,16.38
2022-08-31T20:26:36.342Z,17.77
2022-08-31T20:29:08.860Z,16.77
2022-08-31T20:31:41.416Z,18.83
2022-08-31T20:34:09.679Z,17.50
2022-08-31T20:36:38.090Z,17.20
2022-08-31T20:39:10.013Z,17.23
2022-08-31T20:44:13.006Z,16.70
2022-08-31T20:47:03.265Z,16.10
2022-08-31T20:49:36.256Z,17.20
2022-08-31T20:52:04.610Z,17.95
2022-08-31T20:54:32.787Z,18.00
2022-08-31T20:57:01.668Z,16.92
2022-08-31T20:59:31.227Z,17.30
2022-08-31T21:01:59.845Z,18.55
2022-08-31T21:04:28.972Z,18.30
2022-08-31T21:06:57.763Z,17.42
2022-08-31T21:09:26.403Z,17.92
2022-08-31T21:11:55.969Z,17.00
2022-08-31T21:14:27.067Z,17.55
2022-08-31T21:16:56.442Z,16.67
2022-08-31T21:19:24.697Z,16.52
2022-08-31T21:21:56.215Z,17.20
2022-08-31T21:24:23.831Z,17.40
2022-08-31T21:27:00.129Z,17.80
2022-08-31T21:29:28.982Z,17.15
2022-08-31T21:32:03.252Z,17.42
2022-08-31T21:34:32.872Z,17.30
2022-08-31T21:37:01.634Z,18.08
2022-08-31T21:39:29.315Z,17.63
2022-08-31T21:41:56.983Z,16.02
2022-08-31T21:44:24.727Z,15.60
2022-08-31T21:46:52.457Z,16.25
2022-08-31T21:49:20.647Z,16.23
2022-08-31T21:51:50.665Z,15.98
2022-08-31T21:54:20.539Z,17.10
2022-08-31T21:56:50.023Z,14.52
2022-08-31T21:59:19.113Z,15.85
2022-08-31T22:01:47.171Z,16.17
2022-08-31T22:04:16.377Z,16.13
2022-08-31T22:06:44.499Z,15.52
2022-08-31T22:09:15.669Z,15.77
2022-08-31T22:11:45.938Z,14.88
2022-08-31T22:14:16.116Z,14.60
2022-08-31T22:16:46.482Z,14.93
2022-08-31T22:19:18.580Z,15.05
2022-08-31T22:21:47.711Z,14.50
2022-08-31T22:24:26.912Z,14.95
2022-08-31T22:26:56.523Z,15.45
2022-08-31T22:29:26.035Z,16.17
2022-08-31T22:31:54.836Z,15.15
2022-08-31T22:34:22.510Z,14.52
2022-08-31T22:36:51.966Z,14.98
2022-08-31T22:39:21.044Z,15.90
2022-08-31T22:41:48.650Z,14.40
2022-08-31T22:44:18.444Z,14.63
2022-08-31T22:46:46.545Z,15.60
2022-08-31T22:49:15.007Z,15.70
2022-08-31T22:51:43.829Z,15.70
2022-08-31T22:54:11.703Z,15.77
2022-08-31T22:56:39.836Z,16.60
2022-08-31T22:59:09.284Z,16.25
2022-08-31T23:01:38.695Z,14.65
2022-08-31T23:04:07.487Z,16.98
2022-08-31T23:06:36.306Z,16.20
2022-08-31T23:09:05.317Z,16.45
2022-08-31T23:11:32.967Z,16.00
2022-08-31T23:14:05.319Z,17.75
2022-08-31T23:16:37.340Z,15.98
2022-08-31T23:19:04.934Z,16.95
2022-08-31T23:21:34.736Z,17.40
2022-08-31T23:24:02.957Z,16.73
2022-08-31T23:26:31.151Z,17.20
2022-08-31T23:28:59.770Z,18.58
2022-08-31T23:31:27.912Z,18.25
2022-08-31T23:33:55.580Z,19.83
2022-08-31T23:36:26.099Z,19.65
2022-08-31T23:38:54.714Z,20.08
2022-08-31T23:41:26.064Z,19.98
2022-08-31T23:43:54.290Z,20.52
2022-08-31T23:46:23.598Z,22.02
2022-08-31T23:48:52.194Z,21.55
2022-08-31T23:51:20.857Z,21.10
2022-08-31T23:53:53.904Z,21.70
2022-08-31T23:56:23.572Z,21.75
2022-08-31T23:58:51.225Z,21.88
